sensor_id;sensor_type;location;lat;lon;timestamp;P1;durP1;ratioP1;P2;durP2;ratioP2
22425;SDS011;11380;50.822;15.790;2023-09-19T00:01:21;65.60;;;53.37;;
22425;SDS011;11380;50.822;15.790;2023-09-19T00:06:29;65.24;;;53.54;;
22425;SDS011;11380;50.822;15.790;2023-09-19T00:11:36;65.72;;;53.92;;
22425;SDS011;11380;50.822;15.790;2023-09-19T00:16:43;67.10;;;53.63;;
22425;SDS011;11380;50.822;15.790;2023-09-19T00:21:52;65.13;;;53.17;;
22425;SDS011;11380;50.822;15.790;2023-09-19T00:27:00;66.40;;;53.70;;
22425;SDS011;11380;50.822;15.790;2023-09-19T00:32:07;65.40;;;53.02;;
22425;SDS011;11380;50.822;15.790;2023-09-19T00:37:14;67.07;;;53.73;;
22425;SDS011;11380;50.822;15.790;2023-09-19T00:42:23;63.80;;;53.40;;
22425;SDS011;11380;50.822;15.790;2023-09-19T00:47:30;65.87;;;53.85;;
22425;SDS011;11380;50.822;15.790;2023-09-19T00:52:37;64.77;;;53.13;;
22425;SDS011;11380;50.822;15.790;2023-09-19T00:57:46;64.63;;;53.50;;
22425;SDS011;11380;50.822;15.790;2023-09-19T01:02:57;72.07;;;55.47;;
22425;SDS011;11380;50.822;15.790;2023-09-19T01:08:06;66.85;;;54.18;;
22425;SDS011;11380;50.822;15.790;2023-09-19T01:29:39;67.60;;;53.00;;
22425;SDS011;11380;50.822;15.790;2023-09-19T01:34:58;65.17;;;53.40;;
22425;SDS011;11380;50.822;15.790;2023-09-19T01:40:07;65.47;;;53.37;;
22425;SDS011;11380;50.822;15.790;2023-09-19T01:51:06;65.23;;;53.10;;
22425;SDS011;11380;50.822;15.790;2023-09-19T01:56:13;65.17;;;53.10;;
22425;SDS011;11380;50.822;15.790;2023-09-19T02:01:25;66.20;;;53.65;;
22425;SDS011;11380;50.822;15.790;2023-09-19T02:06:33;64.73;;;53.10;;
22425;SDS011;11380;50.822;15.790;2023-09-19T02:11:39;64.93;;;53.33;;
22425;SDS011;11380;50.822;15.790;2023-09-19T02:16:47;64.83;;;53.23;;
22425;SDS011;11380;50.822;15.790;2023-09-19T02:21:55;68.70;;;54.13;;
22425;SDS011;11380;50.822;15.790;2023-09-19T02:27:02;64.73;;;53.13;;
22425;SDS011;11380;50.822;15.790;2023-09-19T02:32:10;65.97;;;53.23;;
22425;SDS011;11380;50.822;15.790;2023-09-19T02:37:17;64.87;;;52.87;;
22425;SDS011;11380;50.822;15.790;2023-09-19T02:42:24;70.27;;;54.50;;
22425;SDS011;11380;50.822;15.790;2023-09-19T02:47:31;67.50;;;54.00;;
22425;SDS011;11380;50.822;15.790;2023-09-19T02:52:43;64.62;;;52.90;;
22425;SDS011;11380;50.822;15.790;2023-09-19T02:57:55;63.00;;;52.50;;
22425;SDS011;11380;50.822;15.790;2023-09-19T03:03:02;64.10;;;52.47;;
22425;SDS011;11380;50.822;15.790;2023-09-19T03:08:12;64.17;;;52.97;;
22425;SDS011;11380;50.822;15.790;2023-09-19T03:13:24;66.33;;;52.73;;
22425;SDS011;11380;50.822;15.790;2023-09-19T03:18:31;63.70;;;52.50;;
22425;SDS011;11380;50.822;15.790;2023-09-19T03:23:40;63.95;;;52.80;;
22425;SDS011;11380;50.822;15.790;2023-09-19T03:28:49;64.80;;;52.50;;
22425;SDS011;11380;50.822;15.790;2023-09-19T03:33:56;62.73;;;52.47;;
22425;SDS011;11380;50.822;15.790;2023-09-19T03:39:03;64.10;;;52.33;;
22425;SDS011;11380;50.822;15.790;2023-09-19T03:44:10;62.93;;;52.67;;
22425;SDS011;11380;50.822;15.790;2023-09-19T03:49:17;63.10;;;52.33;;
22425;SDS011;11380;50.822;15.790;2023-09-19T03:54:24;63.13;;;52.50;;
22425;SDS011;11380;50.822;15.790;2023-09-19T03:59:31;61.83;;;52.13;;
22425;SDS011;11380;50.822;15.790;2023-09-19T04:04:39;63.57;;;52.30;;
22425;SDS011;11380;50.822;15.790;2023-09-19T04:09:46;62.20;;;52.17;;
22425;SDS011;11380;50.822;15.790;2023-09-19T04:19:59;62.27;;;52.17;;
22425;SDS011;11380;50.822;15.790;2023-09-19T04:25:08;62.08;;;52.27;;
22425;SDS011;11380;50.822;15.790;2023-09-19T04:30:15;61.43;;;52.20;;
22425;SDS011;11380;50.822;15.790;2023-09-19T04:45:34;61.73;;;52.35;;
22425;SDS011;11380;50.822;15.790;2023-09-19T04:50:41;65.08;;;52.40;;
22425;SDS011;11380;50.822;15.790;2023-09-19T04:55:51;67.55;;;51.98;;
22425;SDS011;11380;50.822;15.790;2023-09-19T05:01:01;68.10;;;52.67;;
22425;SDS011;11380;50.822;15.790;2023-09-19T05:06:08;61.93;;;51.93;;
22425;SDS011;11380;50.822;15.790;2023-09-19T05:11:16;62.27;;;52.33;;
22425;SDS011;11380;50.822;15.790;2023-09-19T05:16:28;70.33;;;52.57;;
22425;SDS011;11380;50.822;15.790;2023-09-19T05:21:40;62.93;;;52.60;;
22425;SDS011;11380;50.822;15.790;2023-09-19T05:26:47;61.80;;;52.37;;
22425;SDS011;11380;50.822;15.790;2023-09-19T05:31:53;65.70;;;52.63;;
22425;SDS011;11380;50.822;15.790;2023-09-19T05:37:01;62.17;;;52.48;;
22425;SDS011;11380;50.822;15.790;2023-09-19T05:42:09;62.63;;;53.20;;
22425;SDS011;11380;50.822;15.790;2023-09-19T05:47:16;64.63;;;53.33;;
22425;SDS011;11380;50.822;15.790;2023-09-19T05:52:24;63.73;;;52.48;;
22425;SDS011;11380;50.822;15.790;2023-09-19T05:57:31;65.28;;;53.20;;
22425;SDS011;11380;50.822;15.790;2023-09-19T06:02:38;66.07;;;53.63;;
22425;SDS011;11380;50.822;15.790;2023-09-19T06:07:46;66.70;;;53.50;;
22425;SDS011;11380;50.822;15.790;2023-09-19T06:12:55;68.47;;;53.60;;
22425;SDS011;11380;50.822;15.790;2023-09-19T06:18:03;67.13;;;53.87;;
22425;SDS011;11380;50.822;15.790;2023-09-19T06:23:11;66.77;;;53.67;;
22425;SDS011;11380;50.822;15.790;2023-09-19T06:28:19;63.37;;;52.93;;
22425;SDS011;11380;50.822;15.790;2023-09-19T06:33:28;63.90;;;52.30;;
22425;SDS011;11380;50.822;15.790;2023-09-19T06:38:35;66.70;;;53.17;;
22425;SDS011;11380;50.822;15.790;2023-09-19T06:43:43;68.53;;;53.23;;
22425;SDS011;11380;50.822;15.790;2023-09-19T06:48:51;65.20;;;52.73;;
22425;SDS011;11380;50.822;15.790;2023-09-19T06:53:57;64.87;;;52.70;;
22425;SDS011;11380;50.822;15.790;2023-09-19T06:59:05;63.10;;;52.60;;
22425;SDS011;11380;50.822;15.790;2023-09-19T07:04:12;64.65;;;52.85;;
22425;SDS011;11380;50.822;15.790;2023-09-19T07:09:20;68.10;;;53.42;;
22425;SDS011;11380;50.822;15.790;2023-09-19T07:14:27;65.63;;;52.93;;
22425;SDS011;11380;50.822;15.790;2023-09-19T07:19:34;65.10;;;53.20;;
22425;SDS011;11380;50.822;15.790;2023-09-19T07:24:41;64.30;;;52.67;;
22425;SDS011;11380;50.822;15.790;2023-09-19T07:29:48;64.53;;;53.10;;
22425;SDS011;11380;50.822;15.790;2023-09-19T07:34:57;66.85;;;53.60;;
22425;SDS011;11380;50.822;15.790;2023-09-19T07:40:04;66.70;;;54.13;;
22425;SDS011;11380;50.822;15.790;2023-09-19T07:45:14;67.10;;;53.60;;
22425;SDS011;11380;50.822;15.790;2023-09-19T07:50:22;65.97;;;53.33;;
22425;SDS011;11380;50.822;15.790;2023-09-19T07:55:30;66.70;;;53.40;;
22425;SDS011;11380;50.822;15.790;2023-09-19T08:00:39;67.03;;;53.73;;
22425;SDS011;11380;50.822;15.790;2023-09-19T08:05:46;68.00;;;53.90;;
22425;SDS011;11380;50.822;15.790;2023-09-19T08:10:56;66.37;;;53.73;;
22425;SDS011;11380;50.822;15.790;2023-09-19T08:16:03;70.90;;;53.67;;
22425;SDS011;11380;50.822;15.790;2023-09-19T08:21:11;68.57;;;53.73;;
22425;SDS011;11380;50.822;15.790;2023-09-19T08:26:20;66.60;;;53.63;;
22425;SDS011;11380;50.822;15.790;2023-09-19T08:31:29;65.87;;;53.43;;
22425;SDS011;11380;50.822;15.790;2023-09-19T08:36:37;68.50;;;53.80;;
22425;SDS011;11380;50.822;15.790;2023-09-19T08:41:45;68.28;;;53.80;;
22425;SDS011;11380;50.822;15.790;2023-09-19T08:46:54;70.70;;;53.93;;
22425;SDS011;11380;50.822;15.790;2023-09-19T08:52:20;66.10;;;53.60;;
22425;SDS011;11380;50.822;15.790;2023-09-19T09:02:45;65.80;;;53.40;;
22425;SDS011;11380;50.822;15.790;2023-09-19T09:07:54;66.57;;;53.40;;
22425;SDS011;11380;50.822;15.790;2023-09-19T09:13:03;66.42;;;53.55;;
22425;SDS011;11380;50.822;15.790;2023-09-19T09:18:11;66.10;;;52.90;;
22425;SDS011;11380;50.822;15.790;2023-09-19T09:23:18;67.05;;;54.05;;
22425;SDS011;11380;50.822;15.790;2023-09-19T09:28:26;66.13;;;53.40;;
22425;SDS011;11380;50.822;15.790;2023-09-19T09:33:36;66.60;;;53.25;;
22425;SDS011;11380;50.822;15.790;2023-09-19T09:38:46;66.50;;;53.63;;
22425;SDS011;11380;50.822;15.790;2023-09-19T09:43:53;65.83;;;53.37;;
22425;SDS011;11380;50.822;15.790;2023-09-19T09:49:03;65.67;;;53.27;;
22425;SDS011;11380;50.822;15.790;2023-09-19T09:54:28;69.40;;;53.63;;
22425;SDS011;11380;50.822;15.790;2023-09-19T09:59:53;65.57;;;53.10;;
22425;SDS011;11380;50.822;15.790;2023-09-19T10:10:30;65.77;;;53.10;;
22425;SDS011;11380;50.822;15.790;2023-09-19T10:15:48;66.13;;;53.40;;
22425;SDS011;11380;50.822;15.790;2023-09-19T10:20:58;66.55;;;53.58;;
22425;SDS011;11380;50.822;15.790;2023-09-19T10:26:09;66.30;;;53.25;;
22425;SDS011;11380;50.822;15.790;2023-09-19T10:31:20;66.53;;;53.43;;
22425;SDS011;11380;50.822;15.790;2023-09-19T10:36:31;66.67;;;53.30;;
22425;SDS011;11380;50.822;15.790;2023-09-19T10:41:40;69.05;;;54.03;;
22425;SDS011;11380;50.822;15.790;2023-09-19T10:46:49;74.40;;;54.50;;
22425;SDS011;11380;50.822;15.790;2023-09-19T10:51:59;69.50;;;54.43;;
22425;SDS011;11380;50.822;15.790;2023-09-19T10:57:07;69.80;;;54.53;;
22425;SDS011;11380;50.822;15.790;2023-09-19T11:02:17;69.77;;;54.03;;
22425;SDS011;11380;50.822;15.790;2023-09-19T11:07:25;70.08;;;54.83;;
22425;SDS011;11380;50.822;15.790;2023-09-19T11:17:50;68.47;;;54.08;;
22425;SDS011;11380;50.822;15.790;2023-09-19T11:28:29;69.73;;;54.70;;
22425;SDS011;11380;50.822;15.790;2023-09-19T11:33:37;68.95;;;54.60;;
22425;SDS011;11380;50.822;15.790;2023-09-19T11:49:28;71.27;;;55.17;;
22425;SDS011;11380;50.822;15.790;2023-09-19T11:54:38;69.05;;;54.77;;
22425;SDS011;11380;50.822;15.790;2023-09-19T12:05:48;70.93;;;54.80;;
22425;SDS011;11380;50.822;15.790;2023-09-19T12:10:56;70.80;;;55.03;;
22425;SDS011;11380;50.822;15.790;2023-09-19T12:16:02;70.20;;;55.05;;
22425;SDS011;11380;50.822;15.790;2023-09-19T12:21:23;72.63;;;55.53;;
22425;SDS011;11380;50.822;15.790;2023-09-19T12:26:39;71.47;;;55.25;;
22425;SDS011;11380;50.822;15.790;2023-09-19T12:31:56;69.10;;;54.80;;
22425;SDS011;11380;50.822;15.790;2023-09-19T12:38:02;70.00;;;54.83;;
22425;SDS011;11380;50.822;15.790;2023-09-19T12:43:10;71.13;;;54.77;;
22425;SDS011;11380;50.822;15.790;2023-09-19T12:53:39;71.07;;;54.53;;
22425;SDS011;11380;50.822;15.790;2023-09-19T12:58:56;69.57;;;54.80;;
22425;SDS011;11380;50.822;15.790;2023-09-19T13:09:26;70.10;;;54.98;;
22425;SDS011;11380;50.822;15.790;2023-09-19T13:14:36;70.07;;;55.20;;
22425;SDS011;11380;50.822;15.790;2023-09-19T13:19:46;70.30;;;55.13;;
22425;SDS011;11380;50.822;15.790;2023-09-19T13:24:56;70.30;;;55.40;;
22425;SDS011;11380;50.822;15.790;2023-09-19T13:30:05;71.95;;;55.40;;
22425;SDS011;11380;50.822;15.790;2023-09-19T13:35:13;72.30;;;56.17;;
22425;SDS011;11380;50.822;15.790;2023-09-19T13:40:21;71.10;;;55.47;;
22425;SDS011;11380;50.822;15.790;2023-09-19T13:45:29;72.82;;;56.28;;
22425;SDS011;11380;50.822;15.790;2023-09-19T13:50:37;71.37;;;55.88;;
22425;SDS011;11380;50.822;15.790;2023-09-19T13:55:45;72.20;;;55.97;;
22425;SDS011;11380;50.822;15.790;2023-09-19T14:00:53;71.53;;;56.30;;
22425;SDS011;11380;50.822;15.790;2023-09-19T14:06:03;70.47;;;55.50;;
22425;SDS011;11380;50.822;15.790;2023-09-19T14:11:11;69.97;;;55.53;;
22425;SDS011;11380;50.822;15.790;2023-09-19T14:16:20;70.37;;;55.70;;
22425;SDS011;11380;50.822;15.790;2023-09-19T14:21:29;70.50;;;55.63;;
22425;SDS011;11380;50.822;15.790;2023-09-19T14:26:36;69.15;;;55.05;;
22425;SDS011;11380;50.822;15.790;2023-09-19T14:31:44;72.00;;;55.87;;
22425;SDS011;11380;50.822;15.790;2023-09-19T14:36:51;70.73;;;55.47;;
22425;SDS011;11380;50.822;15.790;2023-09-19T14:42:00;72.30;;;55.40;;
22425;SDS011;11380;50.822;15.790;2023-09-19T14:47:07;70.00;;;55.27;;
22425;SDS011;11380;50.822;15.790;2023-09-19T14:52:16;69.73;;;55.00;;
22425;SDS011;11380;50.822;15.790;2023-09-19T14:57:23;70.83;;;55.57;;
22425;SDS011;11380;50.822;15.790;2023-09-19T15:02:30;70.67;;;55.63;;
22425;SDS011;11380;50.822;15.790;2023-09-19T15:07:39;69.00;;;54.67;;
22425;SDS011;11380;50.822;15.790;2023-09-19T15:12:46;69.67;;;55.07;;
22425;SDS011;11380;50.822;15.790;2023-09-19T15:17:52;68.60;;;54.77;;
22425;SDS011;11380;50.822;15.790;2023-09-19T15:22:59;69.87;;;55.47;;
22425;SDS011;11380;50.822;15.790;2023-09-19T15:28:06;69.53;;;55.23;;
22425;SDS011;11380;50.822;15.790;2023-09-19T15:33:15;68.95;;;54.65;;
22425;SDS011;11380;50.822;15.790;2023-09-19T15:38:22;69.80;;;55.03;;
22425;SDS011;11380;50.822;15.790;2023-09-19T15:43:30;74.00;;;54.70;;
22425;SDS011;11380;50.822;15.790;2023-09-19T15:48:38;69.32;;;54.95;;
22425;SDS011;11380;50.822;15.790;2023-09-19T15:53:47;67.70;;;54.27;;
22425;SDS011;11380;50.822;15.790;2023-09-19T15:58:55;68.77;;;54.20;;
22425;SDS011;11380;50.822;15.790;2023-09-19T16:04:03;69.30;;;54.63;;
22425;SDS011;11380;50.822;15.790;2023-09-19T16:09:11;68.80;;;54.07;;
22425;SDS011;11380;50.822;15.790;2023-09-19T16:14:19;69.17;;;54.00;;
22425;SDS011;11380;50.822;15.790;2023-09-19T16:19:26;68.57;;;53.93;;
22425;SDS011;11380;50.822;15.790;2023-09-19T16:24:33;70.03;;;53.80;;
22425;SDS011;11380;50.822;15.790;2023-09-19T16:29:40;68.70;;;54.00;;
22425;SDS011;11380;50.822;15.790;2023-09-19T16:34:48;69.70;;;53.97;;
22425;SDS011;11380;50.822;15.790;2023-09-19T16:39:56;68.63;;;54.20;;
22425;SDS011;11380;50.822;15.790;2023-09-19T16:45:05;68.73;;;54.13;;
22425;SDS011;11380;50.822;15.790;2023-09-19T16:50:16;67.83;;;54.07;;
22425;SDS011;11380;50.822;15.790;2023-09-19T16:55:23;67.73;;;53.87;;
22425;SDS011;11380;50.822;15.790;2023-09-19T17:00:30;66.98;;;53.26;;
22425;SDS011;11380;50.822;15.790;2023-09-19T17:05:36;69.13;;;53.40;;
22425;SDS011;11380;50.822;15.790;2023-09-19T17:10:44;66.10;;;53.43;;
22425;SDS011;11380;50.822;15.790;2023-09-19T17:16:00;65.83;;;53.07;;
22425;SDS011;11380;50.822;15.790;2023-09-19T17:21:07;68.20;;;52.95;;
22425;SDS011;11380;50.822;15.790;2023-09-19T17:26:17;67.00;;;53.30;;
22425;SDS011;11380;50.822;15.790;2023-09-19T17:31:30;64.70;;;52.67;;
22425;SDS011;11380;50.822;15.790;2023-09-19T17:36:37;68.00;;;52.85;;
22425;SDS011;11380;50.822;15.790;2023-09-19T17:41:47;67.15;;;53.48;;
22425;SDS011;11380;50.822;15.790;2023-09-19T17:46:54;67.40;;;53.87;;
22425;SDS011;11380;50.822;15.790;2023-09-19T17:52:02;65.17;;;52.88;;
22425;SDS011;11380;50.822;15.790;2023-09-19T17:57:09;65.37;;;52.93;;
22425;SDS011;11380;50.822;15.790;2023-09-19T18:02:17;65.00;;;52.90;;
22425;SDS011;11380;50.822;15.790;2023-09-19T18:07:26;67.92;;;53.10;;
22425;SDS011;11380;50.822;15.790;2023-09-19T18:12:36;66.33;;;52.43;;
22425;SDS011;11380;50.822;15.790;2023-09-19T18:17:43;64.92;;;53.02;;
22425;SDS011;11380;50.822;15.790;2023-09-19T18:22:52;65.90;;;53.00;;
22425;SDS011;11380;50.822;15.790;2023-09-19T18:28:00;65.90;;;52.70;;
22425;SDS011;11380;50.822;15.790;2023-09-19T18:33:10;63.90;;;52.30;;
22425;SDS011;11380;50.822;15.790;2023-09-19T18:38:19;64.97;;;52.87;;
22425;SDS011;11380;50.822;15.790;2023-09-19T18:43:27;65.67;;;52.57;;
22425;SDS011;11380;50.822;15.790;2023-09-19T18:48:36;65.33;;;52.77;;
22425;SDS011;11380;50.822;15.790;2023-09-19T18:53:53;65.47;;;52.53;;
22425;SDS011;11380;50.822;15.790;2023-09-19T18:59:03;63.10;;;52.70;;
22425;SDS011;11380;50.822;15.790;2023-09-19T19:04:11;64.03;;;52.70;;
22425;SDS011;11380;50.822;15.790;2023-09-19T19:09:19;66.43;;;52.40;;
22425;SDS011;11380;50.822;15.790;2023-09-19T19:14:27;63.37;;;52.20;;
22425;SDS011;11380;50.822;15.790;2023-09-19T19:19:35;63.73;;;52.43;;
22425;SDS011;11380;50.822;15.790;2023-09-19T19:24:48;62.13;;;52.00;;
22425;SDS011;11380;50.822;15.790;2023-09-19T19:29:57;62.93;;;52.20;;
22425;SDS011;11380;50.822;15.790;2023-09-19T19:35:06;62.17;;;52.37;;
22425;SDS011;11380;50.822;15.790;2023-09-19T19:40:14;62.93;;;52.63;;
22425;SDS011;11380;50.822;15.790;2023-09-19T19:45:21;62.43;;;52.10;;
22425;SDS011;11380;50.822;15.790;2023-09-19T19:50:31;61.63;;;52.03;;
22425;SDS011;11380;50.822;15.790;2023-09-19T19:55:42;66.50;;;51.47;;
22425;SDS011;11380;50.822;15.790;2023-09-19T20:00:53;61.43;;;51.67;;
22425;SDS011;11380;50.822;15.790;2023-09-19T20:06:01;68.60;;;52.90;;
22425;SDS011;11380;50.822;15.790;2023-09-19T20:11:10;66.43;;;52.87;;
22425;SDS011;11380;50.822;15.790;2023-09-19T20:16:18;62.33;;;52.27;;
22425;SDS011;11380;50.822;15.790;2023-09-19T20:21:26;60.60;;;52.13;;
22425;SDS011;11380;50.822;15.790;2023-09-19T20:26:33;62.45;;;51.77;;
22425;SDS011;11380;50.822;15.790;2023-09-19T20:31:42;61.80;;;52.40;;
22425;SDS011;11380;50.822;15.790;2023-09-19T20:36:50;65.87;;;51.60;;
22425;SDS011;11380;50.822;15.790;2023-09-19T20:41:56;60.20;;;51.47;;
22425;SDS011;11380;50.822;15.790;2023-09-19T20:47:03;61.53;;;51.97;;
22425;SDS011;11380;50.822;15.790;2023-09-19T20:52:11;59.27;;;51.47;;
22425;SDS011;11380;50.822;15.790;2023-09-19T20:57:19;62.47;;;52.20;;
22425;SDS011;11380;50.822;15.790;2023-09-19T21:02:26;61.40;;;51.97;;
22425;SDS011;11380;50.822;15.790;2023-09-19T21:07:34;59.80;;;51.50;;
22425;SDS011;11380;50.822;15.790;2023-09-19T21:12:42;60.60;;;51.90;;
22425;SDS011;11380;50.822;15.790;2023-09-19T21:17:50;61.83;;;52.00;;
22425;SDS011;11380;50.822;15.790;2023-09-19T21:22:59;60.97;;;52.13;;
22425;SDS011;11380;50.822;15.790;2023-09-19T21:28:09;61.53;;;51.93;;
22425;SDS011;11380;50.822;15.790;2023-09-19T21:33:17;58.57;;;50.83;;
22425;SDS011;11380;50.822;15.790;2023-09-19T21:38:27;58.67;;;51.20;;
22425;SDS011;11380;50.822;15.790;2023-09-19T21:43:36;59.37;;;51.50;;
22425;SDS011;11380;50.822;15.790;2023-09-19T21:48:43;58.78;;;50.88;;
22425;SDS011;11380;50.822;15.790;2023-09-19T21:53:55;59.00;;;51.63;;
22425;SDS011;11380;50.822;15.790;2023-09-19T21:59:05;60.97;;;51.77;;
22425;SDS011;11380;50.822;15.790;2023-09-19T22:04:12;57.30;;;50.83;;
22425;SDS011;11380;50.822;15.790;2023-09-19T22:09:21;58.53;;;50.93;;
22425;SDS011;11380;50.822;15.790;2023-09-19T22:19:33;58.00;;;51.25;;
22425;SDS011;11380;50.822;15.790;2023-09-19T22:24:42;61.00;;;51.73;;
22425;SDS011;11380;50.822;15.790;2023-09-19T22:29:49;59.27;;;51.13;;
22425;SDS011;11380;50.822;15.790;2023-09-19T22:34:58;57.47;;;51.00;;
22425;SDS011;11380;50.822;15.790;2023-09-19T22:40:06;59.77;;;51.00;;
22425;SDS011;11380;50.822;15.790;2023-09-19T22:45:16;58.73;;;51.03;;
22425;SDS011;11380;50.822;15.790;2023-09-19T22:50:25;61.60;;;50.88;;
22425;SDS011;11380;50.822;15.790;2023-09-19T22:55:36;61.13;;;51.18;;
22425;SDS011;11380;50.822;15.790;2023-09-19T23:00:45;61.13;;;51.15;;
22425;SDS011;11380;50.822;15.790;2023-09-19T23:05:54;60.20;;;50.50;;
22425;SDS011;11380;50.822;15.790;2023-09-19T23:11:02;56.37;;;50.10;;
22425;SDS011;11380;50.822;15.790;2023-09-19T23:16:11;56.23;;;50.03;;
22425;SDS011;11380;50.822;15.790;2023-09-19T23:21:19;56.37;;;49.80;;
22425;SDS011;11380;50.822;15.790;2023-09-19T23:26:27;62.23;;;51.03;;
22425;SDS011;11380;50.822;15.790;2023-09-19T23:31:34;57.13;;;50.83;;
22425;SDS011;11380;50.822;15.790;2023-09-19T23:36:42;56.47;;;50.27;;
22425;SDS011;11380;50.822;15.790;2023-09-19T23:41:48;57.57;;;50.57;;
22425;SDS011;11380;50.822;15.790;2023-09-19T23:46:57;57.10;;;50.13;;
22425;SDS011;11380;50.822;15.790;2023-09-19T23:52:04;56.50;;;50.10;;
22425;SDS011;11380;50.822;15.790;2023-09-19T23:57:13;56.90;;;49.80;;
